Current Conditions
Mostly Scattered
Clouds



Pressure
1021.92 (hPa) - 30.18 (inHG)
Visibility

6.2 (miles) - 10.0 (km)
   Temperature
11  °C
52°F
2  °C
Dewpoint
54  %
 Humidity
   Wind Speed
16  mph
14  kts
26  km/h
7.2  m/s
   Wind Direction
 40°
North East
   Airport Data
EGTK
Location Oxford (Kidlington) Airport 26 mi (41.83 km)
Metar :EGTK 211750Z 04014KT 9999 SCT044 11/02 Q1022
Wed 21st April 17:50 pm
   Raw Metar Info
Raw METAR is the most common format in the world for the transmission of observational weather data. It is highly standardized through the International Civil Aviation Organization (ICAO), which allows it to be understood throughout most of the world.
   API Info
Data Provided by
https://www.checkwx.com/weather/EGTK
   © Info
Adapted by Steepleian for the WeeWX Weather34 skin from the original CSS/SVG/PHP scripts by weather34.com © 2015-2021

Guide Info provided by Metar-Wikipedia